sensor_id;sensor_type;location;lat;lon;timestamp;pressure;altitude;pressure_sealevel;temperature;humidity
43691;BME280;29293;52.190;21.226;2024-03-02T00:01:48;100088.83;;;5.94;100.00
43691;BME280;29293;52.190;21.226;2024-03-02T00:16:56;100076.63;;;5.81;100.00
43691;BME280;29293;52.190;21.226;2024-03-02T00:32:03;100071.33;;;5.66;100.00
43691;BME280;29293;52.190;21.226;2024-03-02T00:47:17;100073.20;;;5.50;100.00
43691;BME280;29293;52.190;21.226;2024-03-02T01:02:24;100068.42;;;5.39;100.00
43691;BME280;29293;52.190;21.226;2024-03-02T01:17:32;100061.54;;;5.30;100.00
43691;BME280;29293;52.190;21.226;2024-03-02T01:32:40;100054.02;;;5.21;100.00
43691;BME280;29293;52.190;21.226;2024-03-02T01:47:47;100043.60;;;5.10;100.00
43691;BME280;29293;52.190;21.226;2024-03-02T02:02:54;100038.81;;;4.99;100.00
43691;BME280;29293;52.190;21.226;2024-03-02T02:18:01;100037.65;;;4.90;100.00
43691;BME280;29293;52.190;21.226;2024-03-02T02:33:09;100028.19;;;4.81;100.00
43691;BME280;29293;52.190;21.226;2024-03-02T02:48:17;100023.36;;;4.69;100.00
43691;BME280;29293;52.190;21.226;2024-03-02T03:03:24;100014.92;;;4.54;100.00
43691;BME280;29293;52.190;21.226;2024-03-02T03:18:31;100006.91;;;4.46;100.00
43691;BME280;29293;52.190;21.226;2024-03-02T03:33:38;99998.30;;;4.33;100.00
43691;BME280;29293;52.190;21.226;2024-03-02T03:48:45;99999.85;;;4.24;100.00
43691;BME280;29293;52.190;21.226;2024-03-02T04:03:52;99994.83;;;4.15;100.00
43691;BME280;29293;52.190;21.226;2024-03-02T04:18:59;100000.00;;;4.15;100.00
43691;BME280;29293;52.190;21.226;2024-03-02T04:34:06;100002.98;;;4.14;100.00
43691;BME280;29293;52.190;21.226;2024-03-02T04:49:14;99994.54;;;4.18;100.00
43691;BME280;29293;52.190;21.226;2024-03-02T05:04:23;99989.95;;;4.19;100.00
43691;BME280;29293;52.190;21.226;2024-03-02T05:19:30;99996.48;;;4.26;100.00
43691;BME280;29293;52.190;21.226;2024-03-02T05:34:38;100012.27;;;4.35;100.00
43691;BME280;29293;52.190;21.226;2024-03-02T05:49:45;100021.70;;;4.43;100.00
43691;BME280;29293;52.190;21.226;2024-03-02T06:04:54;100045.08;;;4.60;100.00
43691;BME280;29293;52.190;21.226;2024-03-02T06:20:05;100057.06;;;4.73;100.00
43691;BME280;29293;52.190;21.226;2024-03-02T06:35:14;100062.34;;;4.91;100.00
43691;BME280;29293;52.190;21.226;2024-03-02T06:50:22;100069.09;;;5.08;100.00
43691;BME280;29293;52.190;21.226;2024-03-02T07:05:28;100072.61;;;5.20;100.00
43691;BME280;29293;52.190;21.226;2024-03-02T07:20:35;100075.95;;;5.32;100.00
43691;BME280;29293;52.190;21.226;2024-03-02T07:35:44;100084.20;;;5.55;100.00
43691;BME280;29293;52.190;21.226;2024-03-02T07:50:51;100083.79;;;5.81;100.00
43691;BME280;29293;52.190;21.226;2024-03-02T08:05:58;100091.91;;;6.08;100.00
43691;BME280;29293;52.190;21.226;2024-03-02T08:21:07;100101.72;;;6.28;100.00
43691;BME280;29293;52.190;21.226;2024-03-02T08:36:14;100097.79;;;6.48;100.00
43691;BME280;29293;52.190;21.226;2024-03-02T08:51:22;100109.41;;;6.82;100.00
43691;BME280;29293;52.190;21.226;2024-03-02T09:06:30;100117.29;;;6.87;100.00
43691;BME280;29293;52.190;21.226;2024-03-02T09:21:37;100122.56;;;6.80;100.00
43691;BME280;29293;52.190;21.226;2024-03-02T09:36:44;100121.59;;;6.99;100.00
43691;BME280;29293;52.190;21.226;2024-03-02T09:51:51;100128.54;;;7.31;100.00
43691;BME280;29293;52.190;21.226;2024-03-02T10:07:14;100118.21;;;7.69;100.00
43691;BME280;29293;52.190;21.226;2024-03-02T10:22:24;100107.36;;;8.03;100.00
43691;BME280;29293;52.190;21.226;2024-03-02T10:37:32;100091.57;;;8.29;100.00
43691;BME280;29293;52.190;21.226;2024-03-02T10:52:40;100084.90;;;8.60;100.00
43691;BME280;29293;52.190;21.226;2024-03-02T11:07:48;100078.48;;;8.90;100.00
43691;BME280;29293;52.190;21.226;2024-03-02T11:22:56;100078.92;;;9.27;100.00
43691;BME280;29293;52.190;21.226;2024-03-02T11:38:05;100070.09;;;9.48;100.00
43691;BME280;29293;52.190;21.226;2024-03-02T11:53:13;100051.45;;;9.68;100.00
43691;BME280;29293;52.190;21.226;2024-03-02T12:08:21;100029.52;;;9.81;100.00
43691;BME280;29293;52.190;21.226;2024-03-02T12:23:30;100055.23;;;10.07;100.00
43691;BME280;29293;52.190;21.226;2024-03-02T12:38:37;100060.60;;;10.35;100.00
43691;BME280;29293;52.190;21.226;2024-03-02T12:53:44;100060.05;;;10.37;100.00
43691;BME280;29293;52.190;21.226;2024-03-02T13:08:51;100054.27;;;10.17;100.00
43691;BME280;29293;52.190;21.226;2024-03-02T13:23:59;100060.78;;;9.84;100.00
43691;BME280;29293;52.190;21.226;2024-03-02T13:39:07;100060.27;;;9.56;100.00
43691;BME280;29293;52.190;21.226;2024-03-02T13:54:15;100059.44;;;9.30;100.00
43691;BME280;29293;52.190;21.226;2024-03-02T14:09:23;100062.66;;;9.04;100.00
43691;BME280;29293;52.190;21.226;2024-03-02T14:24:30;100069.64;;;8.87;100.00
43691;BME280;29293;52.190;21.226;2024-03-02T14:39:39;100072.27;;;8.63;100.00
43691;BME280;29293;52.190;21.226;2024-03-02T14:54:46;100067.28;;;8.37;100.00
43691;BME280;29293;52.190;21.226;2024-03-02T15:09:54;100074.44;;;8.24;100.00
43691;BME280;29293;52.190;21.226;2024-03-02T15:25:01;100068.58;;;8.08;100.00
43691;BME280;29293;52.190;21.226;2024-03-02T15:40:10;100067.92;;;7.91;100.00
43691;BME280;29293;52.190;21.226;2024-03-02T15:55:17;100074.34;;;7.75;100.00
43691;BME280;29293;52.190;21.226;2024-03-02T16:10:25;100081.19;;;7.60;100.00
43691;BME280;29293;52.190;21.226;2024-03-02T16:25:35;100077.88;;;7.47;100.00
43691;BME280;29293;52.190;21.226;2024-03-02T16:40:42;100084.23;;;7.36;100.00
43691;BME280;29293;52.190;21.226;2024-03-02T16:55:50;100088.39;;;7.30;100.00
43691;BME280;29293;52.190;21.226;2024-03-02T17:10:57;100095.70;;;7.23;100.00
43691;BME280;29293;52.190;21.226;2024-03-02T17:26:04;100099.38;;;7.19;100.00
43691;BME280;29293;52.190;21.226;2024-03-02T17:41:12;100091.70;;;7.13;100.00
43691;BME280;29293;52.190;21.226;2024-03-02T17:56:21;100093.02;;;7.04;100.00
43691;BME280;29293;52.190;21.226;2024-03-02T18:11:27;100087.33;;;7.02;100.00
43691;BME280;29293;52.190;21.226;2024-03-02T18:26:34;100092.08;;;6.96;100.00
43691;BME280;29293;52.190;21.226;2024-03-02T18:41:41;100097.82;;;6.84;100.00
43691;BME280;29293;52.190;21.226;2024-03-02T18:56:53;100097.88;;;6.68;100.00
43691;BME280;29293;52.190;21.226;2024-03-02T19:12:00;100095.77;;;6.57;100.00
43691;BME280;29293;52.190;21.226;2024-03-02T19:27:07;100098.03;;;6.52;100.00
43691;BME280;29293;52.190;21.226;2024-03-02T19:42:14;100091.08;;;6.38;100.00
43691;BME280;29293;52.190;21.226;2024-03-02T19:57:21;100085.90;;;6.30;100.00
43691;BME280;29293;52.190;21.226;2024-03-02T20:12:29;100085.63;;;6.29;100.00
43691;BME280;29293;52.190;21.226;2024-03-02T20:27:39;100089.48;;;6.32;100.00
43691;BME280;29293;52.190;21.226;2024-03-02T20:42:47;100088.05;;;6.38;100.00
43691;BME280;29293;52.190;21.226;2024-03-02T20:57:54;100082.46;;;6.43;100.00
43691;BME280;29293;52.190;21.226;2024-03-02T21:13:02;100079.98;;;6.49;100.00
43691;BME280;29293;52.190;21.226;2024-03-02T21:28:09;100074.43;;;6.55;100.00
43691;BME280;29293;52.190;21.226;2024-03-02T21:43:16;100069.77;;;6.58;100.00
43691;BME280;29293;52.190;21.226;2024-03-02T21:58:24;100069.11;;;6.63;100.00
43691;BME280;29293;52.190;21.226;2024-03-02T22:13:31;100068.56;;;6.61;100.00
43691;BME280;29293;52.190;21.226;2024-03-02T22:28:39;100055.30;;;6.62;100.00
43691;BME280;29293;52.190;21.226;2024-03-02T22:43:50;100052.73;;;6.66;100.00
43691;BME280;29293;52.190;21.226;2024-03-02T22:58:58;100050.85;;;6.74;100.00
43691;BME280;29293;52.190;21.226;2024-03-02T23:14:06;100053.95;;;6.81;100.00
43691;BME280;29293;52.190;21.226;2024-03-02T23:29:17;100051.38;;;6.78;100.00
43691;BME280;29293;52.190;21.226;2024-03-02T23:44:24;100053.21;;;6.74;100.00
43691;BME280;29293;52.190;21.226;2024-03-02T23:59:32;100048.41;;;6.71;100.00
